Time;durP1;ratioP1;P1;durP2;ratioP2;P2;SDS_P1;SDS_P2;PMS_P1;PMS_P2;Temp;Humidity;BMP_temperature;BMP_pressure;BME280_temperature;BME280_humidity;BME280_pressure;Samples;Min_cycle;Max_cycle;Signal;HPM_P1;HPM_P2
2021/05/08 00:00:18;;;;;;;9.40;3.53;;;;;;;;;;5023179;28;20050;-92
2021/05/08 00:02:43;;;;;;;6.28;3.63;;;;;;;;;;5023085;28;20033;-91
2021/05/08 00:05:09;;;;;;;7.38;3.50;;;;;;;;;;5015540;28;20026;-90
2021/05/08 00:07:34;;;;;;;6.43;3.92;;;;;;;;;;5010573;28;20018;-91
2021/05/08 00:09:59;;;;;;;9.95;4.05;;;;;;;;;;5005600;28;20030;-91
2021/05/08 00:12:24;;;;;;;7.22;3.83;;;;;;;;;;5002911;28;20132;-89
2021/05/08 00:14:50;;;;;;;5.20;3.45;;;;;;;;;;5033976;28;20022;-90
2021/05/08 00:17:15;;;;;;;6.97;3.97;;;;;;;;;;5036739;28;20014;-91
2021/05/08 00:19:40;;;;;;;5.65;3.88;;;;;;;;;;5023049;28;20030;-89
2021/05/08 00:22:06;;;;;;;4.90;3.70;;;;;;;;;;5017140;28;20019;-90
2021/05/08 00:24:31;;;;;;;5.50;3.75;;;;;;;;;;5011301;28;20030;-89
2021/05/08 00:26:56;;;;;;;6.00;3.30;;;;;;;;;;5021331;28;20030;-91
2021/05/08 00:29:21;;;;;;;8.20;3.70;;;;;;;;;;5027071;28;20030;-89
2021/05/08 00:31:46;;;;;;;6.53;4.15;;;;;;;;;;5036528;28;20080;-91
2021/05/08 00:34:11;;;;;;;7.40;4.15;;;;;;;;;;5030981;28;20022;-92
2021/05/08 00:36:37;;;;;;;5.80;3.67;;;;;;;;;;5031034;28;20082;-92
2021/05/08 00:39:03;;;;;;;5.53;3.63;;;;;;;;;;5037651;28;20073;-93
2021/05/08 00:41:28;;;;;;;6.20;3.72;;;;;;;;;;5037569;28;20072;-92
2021/05/08 00:43:57;;;;;;;5.53;3.83;;;;;;;;;;5021150;28;20356;-92
2021/05/08 00:46:23;;;;;;;6.28;3.97;;;;;;;;;;5023999;28;20030;-91
2021/05/08 00:48:48;;;;;;;6.13;3.42;;;;;;;;;;5021568;28;20057;-90
2021/05/08 00:51:13;;;;;;;6.95;3.80;;;;;;;;;;5021849;28;20030;-90
2021/05/08 00:53:38;;;;;;;6.07;4.05;;;;;;;;;;5021585;28;20025;-90
2021/05/08 00:56:05;;;;;;;6.25;3.42;;;;;;;;;;5025887;28;20018;-89
2021/05/08 00:58:31;;;;;;;6.70;3.80;;;;;;;;;;5030518;28;20044;-90
2021/05/08 01:00:56;;;;;;;7.90;4.05;;;;;;;;;;5036292;28;20038;-89
2021/05/08 01:03:22;;;;;;;7.32;4.50;;;;;;;;;;5008901;28;20509;-90
2021/05/08 01:05:47;;;;;;;8.77;4.25;;;;;;;;;;5021714;28;20026;-90
2021/05/08 01:08:12;;;;;;;6.38;4.18;;;;;;;;;;5020586;28;20478;-91
2021/05/08 01:10:37;;;;;;;7.72;4.10;;;;;;;;;;5002705;28;20083;-90
2021/05/08 01:13:03;;;;;;;6.00;4.18;;;;;;;;;;5023522;28;20042;-90
2021/05/08 01:15:29;;;;;;;7.47;4.43;;;;;;;;;;5024450;28;20022;-90
2021/05/08 01:17:54;;;;;;;6.53;3.65;;;;;;;;;;5021283;28;20061;-88
2021/05/08 01:20:20;;;;;;;6.03;3.78;;;;;;;;;;5030971;28;20094;-87
2021/05/08 01:22:49;;;;;;;6.72;4.13;;;;;;;;;;5016613;28;20018;-88
2021/05/08 01:25:16;;;;;;;5.68;3.85;;;;;;;;;;5021941;28;20088;-88
2021/05/08 01:27:42;;;;;;;7.07;3.72;;;;;;;;;;5032127;28;20021;-90
2021/05/08 01:30:08;;;;;;;5.30;3.40;;;;;;;;;;5025306;28;20030;-89
2021/05/08 01:32:34;;;;;;;6.88;3.70;;;;;;;;;;5000582;28;20024;-88
2021/05/08 01:35:00;;;;;;;8.23;3.85;;;;;;;;;;5024059;28;20026;-90
2021/05/08 01:37:25;;;;;;;6.70;3.95;;;;;;;;;;5018649;28;20030;-89
2021/05/08 01:39:52;;;;;;;8.20;4.68;;;;;;;;;;4999584;28;20385;-88
2021/05/08 01:42:17;;;;;;;5.45;3.38;;;;;;;;;;5017812;28;20021;-89
2021/05/08 01:44:42;;;;;;;6.30;3.83;;;;;;;;;;5024958;28;20022;-89
2021/05/08 01:47:07;;;;;;;5.75;3.40;;;;;;;;;;5025191;28;20028;-89
2021/05/08 01:49:33;;;;;;;7.20;4.07;;;;;;;;;;5018143;28;20068;-89
2021/05/08 01:51:59;;;;;;;5.60;3.45;;;;;;;;;;5017614;28;20468;-88
2021/05/08 01:54:24;;;;;;;6.07;3.67;;;;;;;;;;5018555;28;20244;-88
2021/05/08 01:56:50;;;;;;;7.15;3.72;;;;;;;;;;5020026;28;20022;-89
2021/05/08 01:59:15;;;;;;;7.03;3.72;;;;;;;;;;5000694;28;20029;-91
2021/05/08 02:01:40;;;;;;;5.70;3.50;;;;;;;;;;5012693;28;20501;-90
2021/05/08 02:04:07;;;;;;;6.43;3.22;;;;;;;;;;5019901;28;20092;-90
2021/05/08 02:06:33;;;;;;;5.45;3.38;;;;;;;;;;5018237;28;20032;-90
2021/05/08 02:08:58;;;;;;;5.45;3.45;;;;;;;;;;5019217;28;20105;-91
2021/05/08 02:11:23;;;;;;;6.03;3.60;;;;;;;;;;5020974;28;20089;-91
2021/05/08 02:13:49;;;;;;;5.43;3.40;;;;;;;;;;5006597;28;20033;-90
2021/05/08 02:16:14;;;;;;;6.95;4.07;;;;;;;;;;5017724;28;20513;-90
2021/05/08 02:18:40;;;;;;;6.20;3.35;;;;;;;;;;5015860;28;20056;-88
2021/05/08 02:21:05;;;;;;;6.55;3.90;;;;;;;;;;5018066;28;20028;-89
2021/05/08 02:23:30;;;;;;;7.15;3.42;;;;;;;;;;5018429;28;20382;-90
2021/05/08 02:25:55;;;;;;;5.75;3.28;;;;;;;;;;5003231;28;20074;-88
2021/05/08 02:28:21;;;;;;;6.90;3.58;;;;;;;;;;5033119;28;20022;-87
2021/05/08 02:30:46;;;;;;;4.50;3.25;;;;;;;;;;5021275;28;20445;-88
2021/05/08 02:33:11;;;;;;;4.63;3.03;;;;;;;;;;5021900;28;20026;-89
2021/05/08 02:35:37;;;;;;;4.85;3.42;;;;;;;;;;5017249;28;20108;-89
2021/05/08 02:38:02;;;;;;;5.53;3.38;;;;;;;;;;5015964;28;20018;-87
2021/05/08 02:40:29;;;;;;;6.47;3.35;;;;;;;;;;5016715;28;20065;-93
2021/05/08 02:42:56;;;;;;;6.22;3.30;;;;;;;;;;4999006;28;20161;-87
2021/05/08 02:45:21;;;;;;;5.88;3.30;;;;;;;;;;5017526;28;20033;-87
2021/05/08 02:47:48;;;;;;;4.65;2.97;;;;;;;;;;5015591;28;20539;-90
2021/05/08 02:50:14;;;;;;;5.93;3.20;;;;;;;;;;5022479;28;20029;-87
2021/05/08 02:52:41;;;;;;;8.13;3.60;;;;;;;;;;5034965;28;20052;-89
2021/05/08 02:55:07;;;;;;;6.75;3.20;;;;;;;;;;5015642;28;20064;-89
2021/05/08 02:57:32;;;;;;;4.97;3.30;;;;;;;;;;5002183;28;20029;-87
2021/05/08 02:59:58;;;;;;;7.68;3.95;;;;;;;;;;5001166;28;20504;-88
2021/05/08 03:02:23;;;;;;;7.20;3.90;;;;;;;;;;5016672;28;20088;-88
2021/05/08 03:04:48;;;;;;;9.65;3.60;;;;;;;;;;5002348;28;20030;-86
2021/05/08 03:07:13;;;;;;;6.75;4.03;;;;;;;;;;5025170;28;20050;-89
2021/05/08 03:09:41;;;;;;;5.88;3.28;;;;;;;;;;5026167;28;20072;-87
2021/05/08 03:12:07;;;;;;;4.63;3.10;;;;;;;;;;5021519;28;20022;-88
2021/05/08 03:14:33;;;;;;;5.15;3.30;;;;;;;;;;5015165;28;20046;-89
2021/05/08 03:16:58;;;;;;;4.95;3.00;;;;;;;;;;5022787;28;20030;-91
2021/05/08 03:19:23;;;;;;;5.93;3.38;;;;;;;;;;5034191;28;20022;-87
2021/05/08 03:21:48;;;;;;;6.45;3.33;;;;;;;;;;5030102;28;20400;-88
2021/05/08 03:24:14;;;;;;;4.38;2.97;;;;;;;;;;5021682;28;20014;-89
2021/05/08 03:26:39;;;;;;;4.47;2.88;;;;;;;;;;5023730;28;20097;-86
2021/05/08 03:29:05;;;;;;;5.72;3.20;;;;;;;;;;5023187;28;20056;-89
2021/05/08 03:31:31;;;;;;;5.88;3.40;;;;;;;;;;5030896;28;20009;-87
2021/05/08 03:33:56;;;;;;;5.03;3.60;;;;;;;;;;5043446;28;20052;-85
2021/05/08 03:36:22;;;;;;;5.15;3.55;;;;;;;;;;5034389;28;20045;-89
2021/05/08 03:38:47;;;;;;;6.70;3.63;;;;;;;;;;5028919;28;20026;-89
2021/05/08 03:41:12;;;;;;;5.22;3.30;;;;;;;;;;5021741;28;20151;-88
2021/05/08 03:43:37;;;;;;;5.18;3.53;;;;;;;;;;5030219;28;20026;-88
2021/05/08 03:46:02;;;;;;;6.00;3.45;;;;;;;;;;5022217;28;20021;-88
2021/05/08 03:48:28;;;;;;;6.50;3.42;;;;;;;;;;5022322;28;20105;-88
2021/05/08 03:50:53;;;;;;;8.40;4.07;;;;;;;;;;5019669;28;20026;-89
2021/05/08 03:53:19;;;;;;;5.35;3.40;;;;;;;;;;5026781;28;20053;-88
2021/05/08 03:55:45;;;;;;;7.93;3.63;;;;;;;;;;5039355;28;20025;-88
2021/05/08 03:58:10;;;;;;;6.15;3.42;;;;;;;;;;5025104;28;20418;-87
2021/05/08 04:00:35;;;;;;;5.80;3.40;;;;;;;;;;5008073;28;20064;-86
2021/05/08 04:03:00;;;;;;;5.90;3.30;;;;;;;;;;5033479;28;20030;-88
2021/05/08 04:05:26;;;;;;;6.25;3.22;;;;;;;;;;5047205;28;20033;-87
2021/05/08 04:07:51;;;;;;;6.45;3.40;;;;;;;;;;5043122;28;20025;-88
2021/05/08 04:10:17;;;;;;;5.43;3.28;;;;;;;;;;5052741;28;20021;-88
2021/05/08 04:12:42;;;;;;;5.90;3.28;;;;;;;;;;5044333;28;20056;-88
2021/05/08 04:15:09;;;;;;;6.63;3.38;;;;;;;;;;5042732;28;20029;-90
2021/05/08 04:17:34;;;;;;;5.25;3.42;;;;;;;;;;5044789;28;20075;-87
2021/05/08 04:19:59;;;;;;;5.97;3.10;;;;;;;;;;5045022;28;20439;-91
2021/05/08 04:22:25;;;;;;;5.63;3.25;;;;;;;;;;5041893;28;20083;-92
2021/05/08 04:24:50;;;;;;;5.72;3.38;;;;;;;;;;5041429;28;20021;-91
2021/05/08 04:27:16;;;;;;;5.20;3.05;;;;;;;;;;5053360;28;20056;-90
2021/05/08 04:29:42;;;;;;;4.70;3.10;;;;;;;;;;5050524;28;20545;-89
2021/05/08 04:32:07;;;;;;;7.15;3.47;;;;;;;;;;5044113;28;20104;-89
2021/05/08 04:34:32;;;;;;;4.85;2.67;;;;;;;;;;5032116;28;20041;-87
2021/05/08 04:36:58;;;;;;;4.47;2.42;;;;;;;;;;5046553;28;20047;-85
2021/05/08 04:39:25;;;;;;;4.93;2.20;;;;;;;;;;5065385;28;20030;-88
2021/05/08 04:41:50;;;;;;;4.70;2.72;;;;;;;;;;5043888;28;20029;-88
2021/05/08 04:44:15;;;;;;;4.05;2.60;;;;;;;;;;5045110;28;20025;-88
2021/05/08 04:46:40;;;;;;;4.88;2.90;;;;;;;;;;5032232;28;20028;-88
2021/05/08 04:49:05;;;;;;;4.75;2.45;;;;;;;;;;5038368;28;20021;-88
2021/05/08 04:51:31;;;;;;;4.07;2.58;;;;;;;;;;5040023;28;20085;-90
2021/05/08 04:53:56;;;;;;;4.38;2.60;;;;;;;;;;5038425;28;20104;-89
2021/05/08 04:56:24;;;;;;;5.85;2.50;;;;;;;;;;5041786;28;20029;-88
2021/05/08 04:58:49;;;;;;;5.40;2.50;;;;;;;;;;5044453;28;20025;-87
2021/05/08 05:01:15;;;;;;;3.65;2.20;;;;;;;;;;5032712;28;20046;-90
2021/05/08 05:03:40;;;;;;;5.30;2.47;;;;;;;;;;5029156;28;20040;-89
2021/05/08 05:06:06;;;;;;;3.53;2.10;;;;;;;;;;5018380;28;20117;-89
2021/05/08 05:08:32;;;;;;;4.40;2.30;;;;;;;;;;5018767;28;20051;-85
2021/05/08 05:10:57;;;;;;;3.58;1.90;;;;;;;;;;5018162;28;20029;-90
2021/05/08 05:13:23;;;;;;;3.83;2.30;;;;;;;;;;5020283;28;20040;-87
2021/05/08 05:15:49;;;;;;;5.13;2.10;;;;;;;;;;5021356;28;20033;-88
2021/05/08 05:18:14;;;;;;;3.60;2.00;;;;;;;;;;5025622;28;20021;-87
2021/05/08 05:20:40;;;;;;;3.90;2.25;;;;;;;;;;5022935;28;20044;-87
2021/05/08 05:23:05;;;;;;;3.28;2.30;;;;;;;;;;5023114;28;20132;-88
2021/05/08 05:25:30;;;;;;;4.97;2.35;;;;;;;;;;5016529;28;20042;-88
2021/05/08 05:27:55;;;;;;;3.28;1.92;;;;;;;;;;4999005;28;20671;-87
2021/05/08 05:30:21;;;;;;;3.93;1.80;;;;;;;;;;5018827;28;20469;-87
2021/05/08 05:32:47;;;;;;;3.50;1.90;;;;;;;;;;5015980;28;20265;-87
2021/05/08 05:35:12;;;;;;;3.10;1.80;;;;;;;;;;5015561;28;20021;-90
2021/05/08 05:37:37;;;;;;;2.85;1.75;;;;;;;;;;5019734;28;20053;-87
2021/05/08 05:40:02;;;;;;;3.50;1.90;;;;;;;;;;5008997;28;20445;-88
2021/05/08 05:42:28;;;;;;;3.28;1.80;;;;;;;;;;5021415;28;20292;-87
2021/05/08 05:44:53;;;;;;;1.85;1.52;;;;;;;;;;5035606;28;20086;-87
2021/05/08 05:47:21;;;;;;;3.33;1.77;;;;;;;;;;5024844;28;20026;-89
2021/05/08 05:49:53;;;;;;;2.78;1.52;;;;;;;;;;5016362;28;20512;-88
2021/05/08 05:52:19;;;;;;;2.33;1.50;;;;;;;;;;5024839;28;20022;-87
2021/05/08 05:54:45;;;;;;;4.65;1.85;;;;;;;;;;5021249;28;20129;-89
2021/05/08 05:57:10;;;;;;;3.15;1.70;;;;;;;;;;5000080;28;20026;-88
2021/05/08 05:59:35;;;;;;;2.47;1.52;;;;;;;;;;5025994;28;20458;-88
2021/05/08 06:02:00;;;;;;;3.53;1.80;;;;;;;;;;5030664;28;20050;-87
2021/05/08 06:04:25;;;;;;;2.03;1.40;;;;;;;;;;5020514;28;20033;-87
2021/05/08 06:06:50;;;;;;;2.27;1.73;;;;;;;;;;5020656;28;20087;-87
2021/05/08 06:09:16;;;;;;;2.93;1.77;;;;;;;;;;5042408;28;20256;-84
2021/05/08 06:11:41;;;;;;;2.72;1.50;;;;;;;;;;5028550;28;20285;-85
2021/05/08 06:14:06;;;;;;;3.85;1.50;;;;;;;;;;5007509;28;20021;-89
2021/05/08 06:16:31;;;;;;;4.50;1.90;;;;;;;;;;5027944;28;20469;-85
2021/05/08 06:18:56;;;;;;;2.97;1.58;;;;;;;;;;5024639;28;20318;-88
2021/05/08 06:21:22;;;;;;;3.50;1.90;;;;;;;;;;5014526;28;20066;-87
2021/05/08 06:23:48;;;;;;;3.53;1.90;;;;;;;;;;5017398;28;20276;-86
2021/05/08 06:26:14;;;;;;;2.97;1.70;;;;;;;;;;5020050;28;20265;-88
2021/05/08 06:28:39;;;;;;;2.35;1.67;;;;;;;;;;5029382;28;20021;-87
2021/05/08 06:31:04;;;;;;;4.63;1.90;;;;;;;;;;5014487;28;20025;-86
2021/05/08 06:33:29;;;;;;;2.85;1.88;;;;;;;;;;5002929;28;20348;-88
2021/05/08 06:35:55;;;;;;;3.22;1.88;;;;;;;;;;5021718;28;20067;-89
2021/05/08 06:38:20;;;;;;;2.95;1.50;;;;;;;;;;5030011;28;20026;-88
2021/05/08 06:40:45;;;;;;;2.30;1.60;;;;;;;;;;5032487;28;20041;-85
2021/05/08 06:43:10;;;;;;;2.67;1.60;;;;;;;;;;5036664;28;20151;-89
2021/05/08 06:45:36;;;;;;;2.58;1.63;;;;;;;;;;5035556;28;20355;-89
2021/05/08 06:48:01;;;;;;;5.15;1.75;;;;;;;;;;5045865;28;20028;-84
2021/05/08 06:50:27;;;;;;;3.70;1.80;;;;;;;;;;5045711;28;20113;-85
2021/05/08 06:52:52;;;;;;;2.03;1.55;;;;;;;;;;5044073;28;20074;-88
2021/05/08 06:55:17;;;;;;;3.70;1.63;;;;;;;;;;4991370;28;20112;-89
2021/05/08 06:57:42;;;;;;;4.30;1.83;;;;;;;;;;5021084;28;20110;-89
2021/05/08 07:00:08;;;;;;;2.40;1.45;;;;;;;;;;5023158;28;20144;-87
2021/05/08 07:02:33;;;;;;;3.05;1.92;;;;;;;;;;5015409;28;20014;-82
2021/05/08 07:04:58;;;;;;;2.60;1.58;;;;;;;;;;5006771;28;20025;-89
2021/05/08 07:07:23;;;;;;;6.43;2.60;;;;;;;;;;5024081;28;20029;-86
2021/05/08 07:09:50;;;;;;;2.95;1.98;;;;;;;;;;5018600;28;20437;-87
2021/05/08 07:12:15;;;;;;;3.40;1.90;;;;;;;;;;5028137;28;20025;-86
2021/05/08 07:14:41;;;;;;;3.72;2.20;;;;;;;;;;5028061;28;20048;-86
2021/05/08 07:17:06;;;;;;;3.03;1.80;;;;;;;;;;5034503;28;20021;-86
2021/05/08 07:19:32;;;;;;;3.13;1.73;;;;;;;;;;5022401;28;20022;-89
2021/05/08 07:22:00;;;;;;;3.88;1.90;;;;;;;;;;5019991;28;20025;-87
2021/05/08 07:24:26;;;;;;;3.92;2.22;;;;;;;;;;5021431;28;20436;-88
2021/05/08 07:26:51;;;;;;;3.72;1.98;;;;;;;;;;5002312;28;20021;-86
2021/05/08 07:29:19;;;;;;;3.20;2.10;;;;;;;;;;5012042;28;20022;-86
2021/05/08 07:31:44;;;;;;;3.50;2.40;;;;;;;;;;5015782;28;20065;-88
2021/05/08 07:34:09;;;;;;;4.40;1.95;;;;;;;;;;5017844;28;20030;-88
2021/05/08 07:36:34;;;;;;;3.95;2.45;;;;;;;;;;4998498;28;20184;-86
2021/05/08 07:39:00;;;;;;;3.13;2.00;;;;;;;;;;5016337;28;20021;-88
2021/05/08 07:41:25;;;;;;;4.78;1.90;;;;;;;;;;4999296;28;20084;-87
2021/05/08 07:43:50;;;;;;;4.88;2.10;;;;;;;;;;4998913;28;20385;-87
2021/05/08 07:46:15;;;;;;;4.55;2.08;;;;;;;;;;4999135;28;20393;-86
2021/05/08 07:48:41;;;;;;;3.85;1.80;;;;;;;;;;5008864;28;20102;-86
2021/05/08 07:51:06;;;;;;;4.88;1.92;;;;;;;;;;5009754;28;20084;-83
2021/05/08 07:53:31;;;;;;;2.60;1.70;;;;;;;;;;5017380;28;20009;-85
2021/05/08 07:55:56;;;;;;;3.13;1.98;;;;;;;;;;5016696;28;20056;-83
2021/05/08 07:58:22;;;;;;;5.22;2.70;;;;;;;;;;5001229;28;20101;-85
2021/05/08 08:00:47;;;;;;;2.15;1.80;;;;;;;;;;5013293;28;20060;-84
2021/05/08 08:03:12;;;;;;;3.10;1.60;;;;;;;;;;4990016;28;20427;-85
2021/05/08 08:05:37;;;;;;;3.58;1.67;;;;;;;;;;5011209;28;20034;-85
2021/05/08 08:08:03;;;;;;;2.33;1.65;;;;;;;;;;5007752;28;20080;-83
2021/05/08 08:10:28;;;;;;;2.08;1.60;;;;;;;;;;5005024;28;20022;-85
2021/05/08 08:12:53;;;;;;;2.88;1.80;;;;;;;;;;5000049;28;20018;-84
2021/05/08 08:15:18;;;;;;;3.50;1.95;;;;;;;;;;5012091;28;20022;-83
2021/05/08 08:17:44;;;;;;;3.20;1.40;;;;;;;;;;5013988;28;20548;-84
2021/05/08 08:20:11;;;;;;;3.70;1.70;;;;;;;;;;5010677;28;20042;-81
2021/05/08 08:22:37;;;;;;;3.80;1.55;;;;;;;;;;5006264;28;20089;-80
2021/05/08 08:25:03;;;;;;;3.13;1.90;;;;;;;;;;5008453;28;20109;-78
2021/05/08 08:27:28;;;;;;;3.10;2.00;;;;;;;;;;5010985;28;20088;-78
2021/05/08 08:29:55;;;;;;;3.15;1.50;;;;;;;;;;5002835;28;20098;-81
2021/05/08 08:32:22;;;;;;;2.40;1.80;;;;;;;;;;5011128;28;20092;-84
2021/05/08 08:34:48;;;;;;;3.08;1.40;;;;;;;;;;5009872;28;20036;-83
2021/05/08 08:37:13;;;;;;;2.80;1.40;;;;;;;;;;5012038;28;20511;-84
2021/05/08 08:39:38;;;;;;;2.85;1.40;;;;;;;;;;5015149;28;20053;-84
2021/05/08 08:42:04;;;;;;;3.75;1.70;;;;;;;;;;5016373;28;20025;-83
2021/05/08 08:44:29;;;;;;;3.03;1.70;;;;;;;;;;5017579;28;20077;-84
2021/05/08 08:46:55;;;;;;;2.88;1.67;;;;;;;;;;5018049;28;20031;-84
2021/05/08 08:49:20;;;;;;;4.05;1.55;;;;;;;;;;5016278;28;20050;-86
2021/05/08 08:51:46;;;;;;;4.05;1.50;;;;;;;;;;4995315;28;20021;-77
2021/05/08 08:54:14;;;;;;;1.98;1.30;;;;;;;;;;5006973;28;20121;-77
2021/05/08 08:56:42;;;;;;;3.72;1.70;;;;;;;;;;5005707;28;20018;-79
2021/05/08 09:01:46;;;;;;;1.92;1.15;;;;;;;;;;5016050;28;20123;-79
2021/05/08 09:04:15;;;;;;;2.40;1.35;;;;;;;;;;4997046;28;20026;-80
2021/05/08 09:06:41;;;;;;;3.63;1.63;;;;;;;;;;5009442;28;20038;-79
2021/05/08 09:09:08;;;;;;;2.13;1.35;;;;;;;;;;5010050;28;20032;-81
2021/05/08 09:11:34;;;;;;;3.35;1.27;;;;;;;;;;5002459;28;20014;-80
2021/05/08 09:14:14;;;;;;;3.33;1.50;;;;;;;;;;4994134;28;20346;-81
2021/05/08 09:16:59;;;;;;;2.72;1.23;;;;;;;;;;5003840;28;20018;-79
2021/05/08 09:19:24;;;;;;;2.85;1.13;;;;;;;;;;5002532;28;20041;-81
2021/05/08 09:21:50;;;;;;;3.08;1.38;;;;;;;;;;4984687;28;20449;-80
2021/05/08 09:24:15;;;;;;;2.60;1.27;;;;;;;;;;5002532;28;20125;-79
2021/05/08 09:26:48;;;;;;;1.65;1.20;;;;;;;;;;4984238;28;20092;-80
2021/05/08 09:29:18;;;;;;;1.45;1.05;;;;;;;;;;4991045;28;20057;-79
2021/05/08 09:31:52;;;;;;;1.52;0.93;;;;;;;;;;5002914;28;20549;-79
2021/05/08 09:34:18;;;;;;;2.58;1.20;;;;;;;;;;4999195;28;20042;-79
2021/05/08 09:36:48;;;;;;;2.83;1.67;;;;;;;;;;4981322;28;20316;-80
2021/05/08 09:39:26;;;;;;;1.75;1.17;;;;;;;;;;5004257;28;20064;-79
2021/05/08 09:41:51;;;;;;;5.30;1.60;;;;;;;;;;5001615;28;20065;-79
2021/05/08 09:44:17;;;;;;;2.45;1.23;;;;;;;;;;4979578;28;20468;-78
2021/05/08 09:46:42;;;;;;;1.48;1.10;;;;;;;;;;5003856;28;20026;-80
2021/05/08 09:49:09;;;;;;;2.50;1.40;;;;;;;;;;5003253;28;20066;-78
2021/05/08 09:51:34;;;;;;;1.65;1.00;;;;;;;;;;4984215;28;20057;-80
2021/05/08 09:54:02;;;;;;;1.30;1.10;;;;;;;;;;5009577;28;20432;-76
2021/05/08 09:56:34;;;;;;;2.67;1.10;;;;;;;;;;5005357;28;20029;-77
2021/05/08 09:59:27;;;;;;;2.78;1.00;;;;;;;;;;5001640;28;20030;-79
2021/05/08 10:02:01;;;;;;;2.08;1.15;;;;;;;;;;5016641;28;20567;-77
2021/05/08 10:04:33;;;;;;;2.58;1.10;;;;;;;;;;5032488;28;20099;-81
2021/05/08 10:07:05;;;;;;;1.52;1.13;;;;;;;;;;5023266;28;20045;-79
2021/05/08 10:09:30;;;;;;;2.03;1.20;;;;;;;;;;5023558;28;20802;-81
2021/05/08 10:11:56;;;;;;;2.10;1.03;;;;;;;;;;5029127;28;20029;-80
2021/05/08 10:14:22;;;;;;;2.65;1.45;;;;;;;;;;5025279;28;20681;-79
2021/05/08 10:42:10;;;;;;;3.30;0.80;;;;;;;;;;4998655;28;20085;-73
2021/05/08 10:44:42;;;;;;;1.75;0.80;;;;;;;;;;5005674;28;20117;-73
2021/05/08 10:47:07;;;;;;;1.23;0.90;;;;;;;;;;5005873;28;20329;-72
2021/05/08 10:49:33;;;;;;;2.40;0.93;;;;;;;;;;5007955;28;20022;-80
2021/05/08 10:54:37;;;;;;;1.15;0.80;;;;;;;;;;5215676;23;20141;-76
2021/05/08 10:57:14;;;;;;;1.10;0.80;;;;;;;;;;4995130;28;20040;-75
2021/05/08 10:59:58;;;;;;;0.70;0.70;;;;;;;;;;4989178;28;20037;-76
2021/05/08 11:02:43;;;;;;;3.67;0.90;;;;;;;;;;5009823;28;20045;-75
2021/05/08 11:05:21;;;;;;;1.55;0.80;;;;;;;;;;4990141;28;20030;-76
2021/05/08 11:07:46;;;;;;;1.52;1.10;;;;;;;;;;4984211;28;20026;-75
2021/05/08 11:10:30;;;;;;;2.17;1.02;;;;;;;;;;4992248;28;20515;-77
2021/05/08 11:13:07;;;;;;;2.33;1.40;;;;;;;;;;4997648;28;20050;-76
2021/05/08 11:18:34;;;;;;;1.33;0.93;;;;;;;;;;5006544;28;20436;-76
2021/05/08 11:21:00;;;;;;;1.23;0.98;;;;;;;;;;5014221;28;20118;-76
2021/05/08 11:23:26;;;;;;;3.83;1.40;;;;;;;;;;5010670;28;20450;-73
2021/05/08 11:25:51;;;;;;;1.75;1.20;;;;;;;;;;5012775;28;20096;-74
2021/05/08 11:28:17;;;;;;;1.17;0.95;;;;;;;;;;5007983;28;20029;-74
2021/05/08 11:30:56;;;;;;;1.30;0.80;;;;;;;;;;4984173;28;20048;-75
2021/05/08 11:33:22;;;;;;;1.75;1.05;;;;;;;;;;5007203;28;20845;-74
2021/05/08 11:35:59;;;;;;;1.20;0.65;;;;;;;;;;5007604;28;20030;-74
2021/05/08 11:38:25;;;;;;;0.70;0.60;;;;;;;;;;5003678;28;21438;-75
2021/05/08 11:40:50;;;;;;;1.33;0.70;;;;;;;;;;5006929;28;20120;-75
2021/05/08 11:43:22;;;;;;;2.33;0.90;;;;;;;;;;5004495;28;20111;-74
2021/05/08 11:45:47;;;;;;;1.30;1.00;;;;;;;;;;5012364;28;20304;-76
2021/05/08 11:48:13;;;;;;;3.65;0.80;;;;;;;;;;5002864;28;20069;-75
2021/05/08 11:50:38;;;;;;;1.35;0.70;;;;;;;;;;5004000;28;21879;-75
2021/05/08 11:53:03;;;;;;;2.25;0.75;;;;;;;;;;5010779;28;20022;-76
2021/05/08 11:55:29;;;;;;;1.37;0.70;;;;;;;;;;5014263;28;20030;-74
2021/05/08 11:57:58;;;;;;;1.00;0.73;;;;;;;;;;5002617;28;20285;-75
2021/05/08 12:00:32;;;;;;;1.38;0.88;;;;;;;;;;4989356;28;20045;-74
2021/05/08 12:03:10;;;;;;;1.55;0.90;;;;;;;;;;5001085;28;20041;-73
2021/05/08 12:05:36;;;;;;;1.20;0.70;;;;;;;;;;5007030;28;20141;-73
2021/05/08 12:08:01;;;;;;;10.77;4.60;;;;;;;;;;5008774;28;20125;-75
2021/05/08 12:10:26;;;;;;;2.42;1.02;;;;;;;;;;5001510;28;20361;-73
2021/05/08 12:12:53;;;;;;;1.40;0.75;;;;;;;;;;5001155;28;20417;-75
2021/05/08 12:15:25;;;;;;;1.45;0.70;;;;;;;;;;4999113;28;20018;-74
2021/05/08 12:17:51;;;;;;;1.55;0.90;;;;;;;;;;5009870;28;20552;-75
2021/05/08 12:20:17;;;;;;;1.70;1.08;;;;;;;;;;5004090;28;20053;-74
2021/05/08 12:22:43;;;;;;;0.98;0.80;;;;;;;;;;4995688;28;20392;-75
2021/05/08 12:25:18;;;;;;;0.85;0.70;;;;;;;;;;4994109;28;20018;-75
2021/05/08 12:27:43;;;;;;;2.05;0.70;;;;;;;;;;4999266;28;20368;-74
2021/05/08 12:30:09;;;;;;;1.05;0.70;;;;;;;;;;5013165;28;20070;-74
2021/05/08 12:32:34;;;;;;;1.90;0.70;;;;;;;;;;5016987;28;20037;-74
2021/05/08 12:35:00;;;;;;;0.98;0.60;;;;;;;;;;5014312;28;20095;-75
2021/05/08 12:37:25;;;;;;;1.05;0.70;;;;;;;;;;5005588;28;20595;-73
2021/05/08 12:39:50;;;;;;;0.90;0.80;;;;;;;;;;5011315;28;20527;-75
2021/05/08 12:42:15;;;;;;;0.82;0.57;;;;;;;;;;5014682;28;20025;-77
2021/05/08 12:44:48;;;;;;;1.10;0.70;;;;;;;;;;5023549;28;20081;-77
2021/05/08 12:50:00;;;;;;;1.98;0.60;;;;;;;;;;5018331;28;20037;-77
2021/05/08 12:52:26;;;;;;;1.13;0.60;;;;;;;;;;5014884;28;20096;-76
2021/05/08 12:54:51;;;;;;;1.08;0.60;;;;;;;;;;5018384;28;20116;-77
2021/05/08 12:57:17;;;;;;;0.90;0.70;;;;;;;;;;5016970;28;20038;-78
2021/05/08 12:59:54;;;;;;;3.78;0.60;;;;;;;;;;5012298;28;20030;-76
2021/05/08 13:02:21;;;;;;;1.48;0.50;;;;;;;;;;5009697;28;20034;-76
2021/05/08 13:04:47;;;;;;;0.68;0.50;;;;;;;;;;5017211;28;20049;-77
2021/05/08 13:07:23;;;;;;;0.88;0.60;;;;;;;;;;5003891;28;20064;-76
2021/05/08 13:10:08;;;;;;;0.95;0.70;;;;;;;;;;4992356;28;20112;-76
2021/05/08 13:12:33;;;;;;;1.75;0.80;;;;;;;;;;5000114;28;20130;-77
2021/05/08 13:15:07;;;;;;;0.88;0.60;;;;;;;;;;5006950;28;20097;-73
2021/05/08 13:17:32;;;;;;;0.93;0.40;;;;;;;;;;5002603;28;20451;-76
2021/05/08 13:19:57;;;;;;;3.00;0.67;;;;;;;;;;4998332;28;20038;-74
2021/05/08 13:22:22;;;;;;;0.90;0.55;;;;;;;;;;5004062;28;20285;-75
2021/05/08 13:24:51;;;;;;;1.70;0.70;;;;;;;;;;5009526;28;20044;-77
2021/05/08 13:27:16;;;;;;;1.38;0.65;;;;;;;;;;5010179;28;20383;-77
2021/05/08 13:29:41;;;;;;;1.50;0.63;;;;;;;;;;5009866;28;20097;-77
2021/05/08 13:32:06;;;;;;;2.47;0.70;;;;;;;;;;5009024;28;20018;-76
2021/05/08 13:34:31;;;;;;;1.25;0.65;;;;;;;;;;5009890;28;20365;-76
2021/05/08 13:36:57;;;;;;;1.57;0.70;;;;;;;;;;5009683;28;20108;-77
2021/05/08 13:39:22;;;;;;;2.55;0.90;;;;;;;;;;5002574;28;20277;-77
2021/05/08 13:41:47;;;;;;;1.42;0.65;;;;;;;;;;4980461;28;20180;-75
2021/05/08 13:44:12;;;;;;;0.40;0.40;;;;;;;;;;5007978;28;20045;-78
2021/05/08 13:46:38;;;;;;;1.83;0.52;;;;;;;;;;4991215;28;20296;-77
2021/05/08 13:49:03;;;;;;;0.93;0.60;;;;;;;;;;4999784;28;20040;-76
2021/05/08 13:51:28;;;;;;;0.70;0.60;;;;;;;;;;5008550;28;20048;-77
2021/05/08 13:53:53;;;;;;;0.90;0.68;;;;;;;;;;4992579;28;20517;-76
2021/05/08 13:56:19;;;;;;;1.40;0.82;;;;;;;;;;4992697;28;20021;-77
2021/05/08 13:58:44;;;;;;;1.35;0.90;;;;;;;;;;5012719;28;20026;-78
2021/05/08 14:01:09;;;;;;;0.98;0.68;;;;;;;;;;5008197;28;20030;-77
2021/05/08 14:03:34;;;;;;;1.40;0.70;;;;;;;;;;4986967;28;20034;-77
2021/05/08 14:05:59;;;;;;;0.93;0.50;;;;;;;;;;5009493;28;20329;-77
2021/05/08 14:08:24;;;;;;;0.57;0.40;;;;;;;;;;5005103;28;20276;-77
2021/05/08 14:10:50;;;;;;;1.25;0.77;;;;;;;;;;5008934;28;20407;-78
2021/05/08 14:13:15;;;;;;;0.73;0.53;;;;;;;;;;5006817;28;20022;-75
2021/05/08 14:15:40;;;;;;;0.77;0.50;;;;;;;;;;4990582;28;20289;-75
2021/05/08 14:18:06;;;;;;;0.63;0.45;;;;;;;;;;5009529;28;20256;-74
2021/05/08 14:20:32;;;;;;;1.08;0.70;;;;;;;;;;5003813;28;20772;-75
2021/05/08 14:22:57;;;;;;;1.40;0.80;;;;;;;;;;5008846;28;20095;-74
2021/05/08 14:25:22;;;;;;;1.33;0.93;;;;;;;;;;5008600;28;20026;-75
2021/05/08 14:27:47;;;;;;;1.40;0.82;;;;;;;;;;5006778;28;20133;-75
2021/05/08 14:30:13;;;;;;;1.63;1.00;;;;;;;;;;5000390;28;20086;-74
2021/05/08 14:32:39;;;;;;;1.27;0.63;;;;;;;;;;5004780;28;20442;-74
2021/05/08 14:35:05;;;;;;;0.93;0.60;;;;;;;;;;4996380;28;20520;-77
2021/05/08 14:37:30;;;;;;;1.50;0.70;;;;;;;;;;5016509;28;20057;-75
2021/05/08 14:39:55;;;;;;;0.50;0.50;;;;;;;;;;5010840;28;20052;-76
2021/05/08 14:42:22;;;;;;;1.40;0.70;;;;;;;;;;4996329;28;20086;-75
2021/05/08 14:44:47;;;;;;;1.30;0.60;;;;;;;;;;5013849;28;20689;-75
2021/05/08 14:47:13;;;;;;;0.82;0.40;;;;;;;;;;5015964;28;20140;-75
2021/05/08 14:49:41;;;;;;;0.77;0.50;;;;;;;;;;5016384;28;20027;-74
2021/05/08 14:52:06;;;;;;;0.75;0.45;;;;;;;;;;4998420;28;20014;-77
2021/05/08 14:54:31;;;;;;;1.02;0.38;;;;;;;;;;5008810;28;20511;-75
2021/05/08 14:56:56;;;;;;;1.40;0.63;;;;;;;;;;4996812;28;20065;-75
2021/05/08 14:59:22;;;;;;;1.23;0.50;;;;;;;;;;5015829;28;20264;-75
2021/05/08 15:01:48;;;;;;;0.60;0.40;;;;;;;;;;4994832;28;20142;-74
2021/05/08 15:04:13;;;;;;;1.73;0.40;;;;;;;;;;5008398;28;20276;-74
2021/05/08 15:06:38;;;;;;;1.40;0.55;;;;;;;;;;5007605;28;20524;-75
2021/05/08 15:09:03;;;;;;;0.80;0.50;;;;;;;;;;5009006;28;20021;-75
2021/05/08 15:11:29;;;;;;;1.90;0.40;;;;;;;;;;5007385;28;20292;-74
2021/05/08 15:13:55;;;;;;;0.40;0.38;;;;;;;;;;5008050;28;20053;-76